createdAt,value
2018-10-03T00:01:02.213Z,7.50
2018-10-03T00:03:31.512Z,7.50
2018-10-03T00:06:00.284Z,8.50
2018-10-03T00:08:29.247Z,7.83
2018-10-03T00:10:58.042Z,6.77
2018-10-03T00:13:27.053Z,9.80
2018-10-03T00:15:56.361Z,6.97
2018-10-03T00:18:25.293Z,7.27
2018-10-03T00:20:54.720Z,6.23
2018-10-03T00:23:23.737Z,7.33
2018-10-03T00:25:52.569Z,7.00
2018-10-03T00:28:21.508Z,12.87
2018-10-03T00:30:50.404Z,7.13
2018-10-03T00:33:19.357Z,6.73
2018-10-03T00:35:48.264Z,17.03
2018-10-03T00:38:17.048Z,6.73
2018-10-03T00:40:45.999Z,7.50
2018-10-03T00:43:14.844Z,7.23
2018-10-03T00:45:43.717Z,7.13
2018-10-03T00:48:12.894Z,6.27
2018-10-03T00:50:41.800Z,9.50
2018-10-03T00:53:10.694Z,17.13
2018-10-03T00:55:39.508Z,6.17
2018-10-03T00:58:08.320Z,7.90
2018-10-03T01:00:37.446Z,6.30
2018-10-03T01:03:06.509Z,8.40
2018-10-03T01:05:35.257Z,12.50
2018-10-03T01:08:04.105Z,7.80
2018-10-03T01:10:33.366Z,7.80
2018-10-03T01:13:02.420Z,7.97
2018-10-03T01:15:31.220Z,6.10
2018-10-03T01:18:00.036Z,8.70
2018-10-03T01:20:28.952Z,5.83
2018-10-03T01:22:57.689Z,5.40
2018-10-03T01:25:26.588Z,8.13
2018-10-03T01:27:55.669Z,8.83
2018-10-03T01:30:24.487Z,8.13
2018-10-03T01:32:53.296Z,5.80
2018-10-03T01:35:22.916Z,6.80
2018-10-03T01:37:52.861Z,10.50
2018-10-03T01:40:22.061Z,7.43
2018-10-03T01:42:50.924Z,7.63
2018-10-03T01:45:19.733Z,6.40
2018-10-03T01:47:48.472Z,7.00
2018-10-03T01:50:17.275Z,8.17
2018-10-03T01:52:46.534Z,6.23
2018-10-03T01:55:15.385Z,8.70
2018-10-03T01:57:44.173Z,9.03
2018-10-03T02:00:13.005Z,8.47
2018-10-03T02:02:42.111Z,7.53
2018-10-03T02:05:10.912Z,8.67
2018-10-03T02:07:39.716Z,10.83
2018-10-03T02:10:08.808Z,9.90
2018-10-03T02:12:38.208Z,6.93
2018-10-03T02:15:07.402Z,10.30
2018-10-03T02:17:36.219Z,9.10
2018-10-03T02:20:05.368Z,10.37
2018-10-03T02:22:34.222Z,7.03
2018-10-03T02:25:03.035Z,9.13
2018-10-03T02:27:31.948Z,11.20
2018-10-03T02:30:00.691Z,11.37
2018-10-03T02:32:29.537Z,7.93
2018-10-03T02:34:58.306Z,6.50
2018-10-03T02:37:27.169Z,5.60
2018-10-03T02:39:55.933Z,10.37
2018-10-03T02:42:24.727Z,10.20
2018-10-03T02:44:53.481Z,12.80
2018-10-03T02:47:22.372Z,7.40
2018-10-03T02:49:51.252Z,14.57
2018-10-03T02:52:20.213Z,8.07
2018-10-03T02:54:48.988Z,10.33
2018-10-03T02:57:17.729Z,7.57
2018-10-03T02:59:46.777Z,7.87
2018-10-03T03:02:15.553Z,9.60
2018-10-03T03:04:44.322Z,12.13
2018-10-03T03:07:13.260Z,6.57
2018-10-03T03:09:42.138Z,8.90
2018-10-03T03:12:11.097Z,12.83
2018-10-03T03:14:40.290Z,8.63
2018-10-03T03:17:15.811Z,8.60
2018-10-03T03:19:44.732Z,7.83
2018-10-03T03:22:13.598Z,10.63
2018-10-03T03:24:42.485Z,8.40
2018-10-03T03:27:12.035Z,9.53
2018-10-03T03:29:40.925Z,7.60
2018-10-03T03:32:09.885Z,16.23
2018-10-03T03:34:38.769Z,6.67
2018-10-03T03:37:07.674Z,12.73
2018-10-03T03:39:36.761Z,10.00
2018-10-03T03:42:06.428Z,7.90
2018-10-03T03:44:35.476Z,8.93
2018-10-03T03:47:04.275Z,6.63
2018-10-03T03:49:33.213Z,8.57
2018-10-03T03:52:02.625Z,8.17
2018-10-03T03:54:31.537Z,13.17
2018-10-03T03:57:00.351Z,7.20
2018-10-03T03:59:29.150Z,11.50
2018-10-03T04:01:57.950Z,15.80
2018-10-03T04:04:26.743Z,10.87
2018-10-03T04:06:55.509Z,14.73
2018-10-03T04:09:24.337Z,9.97
2018-10-03T04:11:53.179Z,11.63
2018-10-03T04:14:21.956Z,6.67
2018-10-03T04:16:50.746Z,9.93
2018-10-03T04:19:20.236Z,12.10
2018-10-03T04:21:49.065Z,8.20
2018-10-03T04:24:18.524Z,7.47
2018-10-03T04:26:47.358Z,10.50
2018-10-03T04:29:16.136Z,7.53
2018-10-03T04:31:44.952Z,8.27
2018-10-03T04:34:14.464Z,9.67
2018-10-03T04:36:43.845Z,10.07
2018-10-03T04:39:12.654Z,6.80
2018-10-03T04:41:41.541Z,12.87
2018-10-03T04:44:10.368Z,8.17
2018-10-03T04:46:39.165Z,7.97
2018-10-03T04:49:08.578Z,8.80
2018-10-03T04:51:37.349Z,8.83
2018-10-03T04:54:06.204Z,9.40
2018-10-03T04:56:35.042Z,8.00
2018-10-03T04:59:04.425Z,7.63
2018-10-03T05:01:33.221Z,9.60
2018-10-03T05:04:02.108Z,7.63
2018-10-03T05:06:30.916Z,8.90
2018-10-03T05:08:59.685Z,6.93
2018-10-03T05:11:28.527Z,10.67
2018-10-03T05:13:57.266Z,7.40
2018-10-03T05:16:26.068Z,8.93
2018-10-03T05:18:54.841Z,9.37
2018-10-03T05:21:23.661Z,13.90
2018-10-03T05:23:52.411Z,13.00
2018-10-03T05:26:21.253Z,17.53
2018-10-03T05:28:49.959Z,6.97
2018-10-03T05:31:18.746Z,11.20
2018-10-03T05:33:47.605Z,7.67
2018-10-03T05:36:16.357Z,7.10
2018-10-03T05:38:45.143Z,9.53
2018-10-03T05:41:14.051Z,14.50
2018-10-03T05:43:42.778Z,8.87
2018-10-03T05:46:11.812Z,9.23
2018-10-03T05:48:40.637Z,8.37
2018-10-03T05:51:09.393Z,10.77
2018-10-03T05:53:38.248Z,12.50
2018-10-03T05:56:07.269Z,9.23
2018-10-03T05:58:35.988Z,10.07
2018-10-03T06:01:04.871Z,5.07
2018-10-03T06:03:33.645Z,5.27
2018-10-03T06:06:02.398Z,8.10
2018-10-03T06:08:31.166Z,6.23
2018-10-03T06:11:00.203Z,8.50
2018-10-03T06:13:28.948Z,7.80
2018-10-03T06:15:57.832Z,5.83
2018-10-03T06:18:26.810Z,5.10
2018-10-03T06:20:55.549Z,7.60
2018-10-03T06:23:24.401Z,8.87
2018-10-03T06:25:53.472Z,6.53
2018-10-03T06:28:22.568Z,5.70
2018-10-03T06:30:51.561Z,5.37
2018-10-03T06:33:20.316Z,6.07
2018-10-03T06:35:49.285Z,5.30
2018-10-03T06:38:18.057Z,7.70
2018-10-03T06:40:46.855Z,6.93
2018-10-03T06:43:15.728Z,8.70
2018-10-03T06:45:44.627Z,8.30
2018-10-03T06:48:13.420Z,5.90
2018-10-03T06:50:42.157Z,4.90
2018-10-03T06:53:10.922Z,6.67
2018-10-03T06:55:39.813Z,7.67
2018-10-03T06:58:08.709Z,5.23
2018-10-03T07:00:37.592Z,14.77
2018-10-03T07:03:06.425Z,8.10
2018-10-03T07:05:35.413Z,5.60
2018-10-03T07:08:04.148Z,4.80
2018-10-03T07:10:33.061Z,5.23
2018-10-03T07:13:01.935Z,5.20
2018-10-03T07:15:30.777Z,7.30
2018-10-03T07:17:59.753Z,5.77
2018-10-03T07:20:28.607Z,6.70
2018-10-03T07:22:57.385Z,10.40
2018-10-03T07:25:26.208Z,5.87
2018-10-03T07:27:55.021Z,7.37
2018-10-03T07:30:23.907Z,5.23
2018-10-03T07:32:52.741Z,5.03
2018-10-03T07:35:21.632Z,5.80
2018-10-03T07:37:50.429Z,5.70
2018-10-03T07:40:19.252Z,6.40
2018-10-03T07:42:48.121Z,17.07
2018-10-03T07:45:17.158Z,6.17
2018-10-03T07:47:45.988Z,9.87
2018-10-03T07:50:14.789Z,6.60
2018-10-03T07:52:43.606Z,6.80
2018-10-03T07:55:12.542Z,5.67
2018-10-03T07:57:41.356Z,6.27
2018-10-03T08:00:10.265Z,8.53
2018-10-03T08:02:39.097Z,9.90
2018-10-03T08:05:07.970Z,10.53
2018-10-03T08:07:36.807Z,8.83
2018-10-03T08:10:05.873Z,10.50
2018-10-03T08:12:34.701Z,5.77
2018-10-03T08:15:03.840Z,5.80
2018-10-03T08:17:32.827Z,7.50
2018-10-03T08:20:01.889Z,8.30
2018-10-03T08:22:30.743Z,5.83
2018-10-03T08:24:59.557Z,6.63
2018-10-03T08:27:28.445Z,4.40
2018-10-03T08:29:57.292Z,6.43
2018-10-03T08:32:26.144Z,6.07
2018-10-03T08:34:54.990Z,4.77
2018-10-03T08:37:23.938Z,10.83
2018-10-03T08:39:52.797Z,8.17
2018-10-03T08:42:21.728Z,7.07
2018-10-03T08:44:50.496Z,7.00
2018-10-03T08:47:19.515Z,9.03
2018-10-03T08:49:48.550Z,6.00
2018-10-03T08:52:17.358Z,6.93
2018-10-03T08:54:46.158Z,5.90
2018-10-03T08:57:15.013Z,5.93
2018-10-03T08:59:43.766Z,3.83
2018-10-03T09:02:12.650Z,5.33
2018-10-03T09:04:41.613Z,4.30
2018-10-03T09:07:10.697Z,6.67
2018-10-03T09:09:39.513Z,4.50
2018-10-03T09:12:08.329Z,4.23
2018-10-03T09:14:37.194Z,4.83
2018-10-03T09:17:06.261Z,5.63
2018-10-03T09:19:35.109Z,5.70
2018-10-03T09:22:03.929Z,3.60
2018-10-03T09:24:32.742Z,4.07
2018-10-03T09:27:01.574Z,6.93
2018-10-03T09:29:30.365Z,5.50
2018-10-03T09:31:59.325Z,6.13
2018-10-03T09:34:28.284Z,3.90
2018-10-03T09:36:57.471Z,4.17
2018-10-03T09:39:26.445Z,8.17
2018-10-03T09:41:55.246Z,7.47
2018-10-03T09:44:24.121Z,7.40
2018-10-03T09:46:52.953Z,6.07
2018-10-03T09:49:21.815Z,4.17
2018-10-03T09:51:50.629Z,3.43
2018-10-03T09:54:19.565Z,4.93
2018-10-03T09:56:48.412Z,5.10
2018-10-03T09:59:17.320Z,5.87
2018-10-03T10:01:46.089Z,6.33
2018-10-03T10:04:14.960Z,6.90
2018-10-03T10:06:43.749Z,5.00
2018-10-03T10:09:12.608Z,6.07
2018-10-03T10:11:41.612Z,6.17
2018-10-03T10:14:10.448Z,6.17
2018-10-03T10:16:39.280Z,6.77
2018-10-03T10:19:08.220Z,9.07
2018-10-03T10:21:37.061Z,4.80
2018-10-03T10:24:06.070Z,7.67
2018-10-03T10:26:36.236Z,6.37
2018-10-03T10:29:05.208Z,6.00
2018-10-03T10:31:34.058Z,4.97
2018-10-03T10:34:03.036Z,6.30
2018-10-03T10:36:31.829Z,13.03
2018-10-03T10:39:00.624Z,10.47
2018-10-03T10:41:29.880Z,4.63
2018-10-03T10:43:58.456Z,6.17
2018-10-03T10:46:27.251Z,10.60
2018-10-03T10:48:56.138Z,7.70
2018-10-03T10:51:25.147Z,9.00
2018-10-03T10:53:54.244Z,17.30
2018-10-03T10:56:23.187Z,4.83
2018-10-03T10:58:52.085Z,6.97
2018-10-03T11:01:20.974Z,5.60
2018-10-03T11:03:49.745Z,5.80
2018-10-03T11:06:18.642Z,11.30
2018-10-03T11:08:47.462Z,10.27
2018-10-03T11:11:16.528Z,8.30
2018-10-03T11:13:45.335Z,6.13
2018-10-03T11:16:14.406Z,5.40
2018-10-03T11:18:43.548Z,5.93
2018-10-03T11:21:12.359Z,4.53
2018-10-03T11:23:41.732Z,15.00
2018-10-03T11:26:11.989Z,10.60
2018-10-03T11:28:40.980Z,5.13
2018-10-03T11:31:09.964Z,5.57
2018-10-03T11:33:38.853Z,7.70
2018-10-03T11:36:07.845Z,7.60
2018-10-03T11:38:36.956Z,5.43
2018-10-03T11:41:05.852Z,4.40
2018-10-03T11:43:34.964Z,9.60
2018-10-03T11:46:03.812Z,4.30
2018-10-03T11:48:32.826Z,5.40
2018-10-03T11:51:01.902Z,5.80
2018-10-03T11:53:30.723Z,7.57
2018-10-03T11:55:59.814Z,6.37
2018-10-03T11:58:28.748Z,7.03
2018-10-03T12:00:57.656Z,4.40
2018-10-03T12:03:26.700Z,4.90
2018-10-03T12:05:55.789Z,8.83
2018-10-03T12:08:24.642Z,7.13
2018-10-03T12:10:53.421Z,5.57
2018-10-03T12:13:22.301Z,6.33
2018-10-03T12:15:51.222Z,4.37
2018-10-03T12:18:20.045Z,8.67
2018-10-03T12:20:48.840Z,3.60
2018-10-03T12:23:17.570Z,4.67
2018-10-03T12:25:46.600Z,5.57
2018-10-03T12:28:15.469Z,6.30
2018-10-03T12:30:42.988Z,4.93
2018-10-03T12:33:10.772Z,7.43
2018-10-03T12:35:38.337Z,5.13
2018-10-03T12:38:05.808Z,6.90
2018-10-03T12:40:33.513Z,6.93
2018-10-03T12:43:01.200Z,6.93
2018-10-03T12:45:29.092Z,7.30
2018-10-03T12:47:57.001Z,8.27
2018-10-03T12:50:24.414Z,5.83
2018-10-03T12:52:51.908Z,6.97
2018-10-03T12:55:19.646Z,6.80
2018-10-03T12:57:47.640Z,6.10
2018-10-03T13:00:15.264Z,5.10
2018-10-03T13:02:42.815Z,6.13
2018-10-03T13:05:10.319Z,8.10
2018-10-03T13:07:37.750Z,6.30
2018-10-03T13:10:05.249Z,6.93
2018-10-03T13:12:32.731Z,12.40
2018-10-03T13:15:00.269Z,12.67
2018-10-03T13:17:29.374Z,4.30
2018-10-03T13:19:58.232Z,6.47
2018-10-03T13:22:27.064Z,5.57
2018-10-03T13:24:56.179Z,5.03
2018-10-03T13:27:25.014Z,4.10
2018-10-03T13:29:53.728Z,9.97
2018-10-03T13:32:22.592Z,5.90
2018-10-03T13:34:51.329Z,5.70
2018-10-03T13:37:20.177Z,4.43
2018-10-03T13:39:49.169Z,5.77
2018-10-03T13:42:17.912Z,4.73
2018-10-03T13:44:46.750Z,5.13
2018-10-03T13:47:15.564Z,3.67
2018-10-03T13:49:44.420Z,4.53
2018-10-03T13:52:13.571Z,6.73
2018-10-03T13:54:42.400Z,8.60
2018-10-03T13:57:11.364Z,6.73
2018-10-03T13:59:41.114Z,5.47
2018-10-03T14:02:09.968Z,5.23
2018-10-03T14:04:38.710Z,4.93
2018-10-03T14:07:08.050Z,11.80
2018-10-03T14:09:36.922Z,5.10
2018-10-03T14:12:05.764Z,7.10
2018-10-03T14:14:34.736Z,4.67
2018-10-03T14:17:03.722Z,7.60
2018-10-03T14:19:32.484Z,6.80
2018-10-03T14:22:01.340Z,5.00
2018-10-03T14:24:30.253Z,7.37
2018-10-03T14:26:59.069Z,7.27
2018-10-03T14:29:27.948Z,8.10
2018-10-03T14:31:56.850Z,6.00
2018-10-03T14:34:25.738Z,10.03
2018-10-03T14:36:54.532Z,6.33
2018-10-03T14:39:23.351Z,10.80
2018-10-03T14:41:52.247Z,6.77
2018-10-03T14:44:21.273Z,8.33
2018-10-03T14:46:50.655Z,10.70
2018-10-03T14:49:19.550Z,7.60
2018-10-03T14:51:48.346Z,9.40
2018-10-03T14:54:17.473Z,18.07
2018-10-03T14:56:46.443Z,10.53
2018-10-03T14:59:15.364Z,7.63
2018-10-03T15:01:44.416Z,8.13
2018-10-03T15:04:13.246Z,5.93
2018-10-03T15:06:42.114Z,5.87
2018-10-03T15:09:11.344Z,7.97
2018-10-03T15:11:40.473Z,10.53
2018-10-03T15:14:09.372Z,8.60
2018-10-03T15:16:38.295Z,8.97
2018-10-03T15:19:07.252Z,6.87
2018-10-03T15:21:36.164Z,9.90
2018-10-03T15:24:05.209Z,6.03
2018-10-03T15:26:34.233Z,7.93
2018-10-03T15:29:03.028Z,11.67
2018-10-03T15:31:31.854Z,6.43
2018-10-03T15:34:00.689Z,7.50
2018-10-03T15:36:29.925Z,6.30
2018-10-03T15:38:58.777Z,6.53
2018-10-03T15:41:28.382Z,6.93
2018-10-03T15:44:03.838Z,5.80
2018-10-03T15:46:32.677Z,6.67
2018-10-03T15:49:01.497Z,6.03
2018-10-03T15:51:30.322Z,7.13
2018-10-03T15:53:59.140Z,5.30
2018-10-03T15:56:28.196Z,8.60
2018-10-03T15:58:56.985Z,10.67
2018-10-03T16:01:25.860Z,6.57
2018-10-03T16:03:54.812Z,7.13
2018-10-03T16:06:23.805Z,9.53
2018-10-03T16:08:53.148Z,6.47
2018-10-03T16:11:22.077Z,5.83
2018-10-03T16:13:51.109Z,7.70
2018-10-03T16:16:20.198Z,6.73
2018-10-03T16:18:48.975Z,7.50
2018-10-03T16:21:17.784Z,7.27
2018-10-03T16:23:46.768Z,5.87
2018-10-03T16:26:15.641Z,5.33
2018-10-03T16:28:44.379Z,5.23
2018-10-03T16:31:13.364Z,7.47
2018-10-03T16:33:42.124Z,6.87
2018-10-03T16:36:11.005Z,11.87
2018-10-03T16:38:39.961Z,8.30
2018-10-03T16:41:08.848Z,7.10
2018-10-03T16:43:37.948Z,7.70
2018-10-03T16:46:07.147Z,13.00
2018-10-03T16:48:35.996Z,10.87
2018-10-03T16:51:04.828Z,10.10
2018-10-03T16:53:33.642Z,6.67
2018-10-03T16:56:02.467Z,6.43
2018-10-03T16:58:31.371Z,9.30
2018-10-03T17:01:00.540Z,7.43
2018-10-03T17:03:29.289Z,13.40
2018-10-03T17:05:58.074Z,11.13
2018-10-03T17:08:27.052Z,18.70
2018-10-03T17:10:55.917Z,8.63
2018-10-03T17:13:25.071Z,10.87
2018-10-03T17:15:53.913Z,8.10
2018-10-03T17:18:22.797Z,14.40
2018-10-03T17:20:51.663Z,19.03
2018-10-03T17:23:20.541Z,10.80
2018-10-03T17:25:49.309Z,12.77
2018-10-03T17:28:18.266Z,11.80
2018-10-03T17:30:47.040Z,10.90
2018-10-03T17:33:16.042Z,11.70
2018-10-03T17:35:44.791Z,14.40
2018-10-03T17:38:13.568Z,8.17
2018-10-03T17:40:42.388Z,12.33
2018-10-03T17:43:11.254Z,8.70
2018-10-03T17:45:40.125Z,12.03
2018-10-03T17:48:08.933Z,10.40
2018-10-03T17:50:38.191Z,14.13
2018-10-03T17:53:07.649Z,11.43
2018-10-03T17:55:36.364Z,16.10
2018-10-03T17:58:05.239Z,13.80
2018-10-03T18:00:34.101Z,10.20
2018-10-03T18:03:02.995Z,10.90
2018-10-03T18:05:33.020Z,9.97
2018-10-03T18:08:03.338Z,11.40
2018-10-03T18:10:31.747Z,10.87
2018-10-03T18:12:59.437Z,13.27
2018-10-03T18:15:26.997Z,13.17
2018-10-03T18:17:56.003Z,12.47
2018-10-03T18:20:24.850Z,12.37
2018-10-03T18:22:54.003Z,13.13
2018-10-03T18:25:22.981Z,11.10
2018-10-03T18:27:51.861Z,10.03
2018-10-03T18:30:21.479Z,17.40
2018-10-03T18:32:50.362Z,17.37
2018-10-03T18:35:19.495Z,14.67
2018-10-03T18:37:49.663Z,13.53
2018-10-03T18:40:18.668Z,13.47
2018-10-03T18:42:47.559Z,16.40
2018-10-03T18:45:16.546Z,14.93
2018-10-03T18:47:45.342Z,12.70
2018-10-03T18:50:14.172Z,11.43
2018-10-03T18:52:42.961Z,16.13
2018-10-03T18:55:11.742Z,12.83
2018-10-03T18:57:40.577Z,12.80
2018-10-03T19:00:09.449Z,14.87
2018-10-03T19:02:38.256Z,11.50
2018-10-03T19:07:59.831Z,12.23
2018-10-03T19:10:28.913Z,17.07
2018-10-03T19:12:57.656Z,11.07
2018-10-03T19:15:26.741Z,12.80
2018-10-03T19:17:55.694Z,15.40
2018-10-03T19:20:24.663Z,13.83
2018-10-03T19:22:53.534Z,16.63
2018-10-03T19:25:22.405Z,23.93
2018-10-03T19:27:51.283Z,16.60
2018-10-03T19:30:20.237Z,18.17
2018-10-03T19:32:49.276Z,17.33
2018-10-03T19:35:18.161Z,13.37
2018-10-03T19:37:47.304Z,13.30
2018-10-03T19:40:16.212Z,17.73
2018-10-03T19:42:45.026Z,15.70
2018-10-03T19:45:13.904Z,14.57
2018-10-03T19:47:42.971Z,15.17
2018-10-03T19:50:11.920Z,15.50
2018-10-03T19:52:40.850Z,15.93
2018-10-03T19:55:09.666Z,19.00
2018-10-03T19:57:38.534Z,14.73
2018-10-03T20:00:07.644Z,14.10
2018-10-03T20:02:36.516Z,16.67
2018-10-03T20:05:05.409Z,16.17
2018-10-03T20:07:34.250Z,15.87
2018-10-03T20:10:03.208Z,18.47
2018-10-03T20:12:32.162Z,14.10
2018-10-03T20:15:01.122Z,16.10
2018-10-03T20:17:29.962Z,18.00
2018-10-03T20:19:58.827Z,15.97
2018-10-03T20:22:27.617Z,17.53
2018-10-03T20:24:56.413Z,16.93
2018-10-03T20:27:25.531Z,15.10
2018-10-03T20:29:54.371Z,19.63
2018-10-03T20:32:23.253Z,21.67
2018-10-03T20:34:52.155Z,15.60
2018-10-03T20:37:21.009Z,14.43
2018-10-03T20:39:49.790Z,15.03
2018-10-03T20:42:18.861Z,11.53
2018-10-03T20:44:47.661Z,11.23
2018-10-03T20:47:16.446Z,17.27
2018-10-03T20:49:45.429Z,13.17
2018-10-03T20:52:14.200Z,16.50
2018-10-03T20:54:43.051Z,18.27
2018-10-03T20:57:11.988Z,13.90
2018-10-03T20:59:40.901Z,13.73
2018-10-03T21:02:09.683Z,15.40
2018-10-03T21:04:38.433Z,20.30
2018-10-03T21:07:07.273Z,20.03
2018-10-03T21:09:36.049Z,17.57
2018-10-03T21:12:04.853Z,14.90
2018-10-03T21:14:33.836Z,16.97
2018-10-03T21:17:02.600Z,23.10
2018-10-03T21:19:31.456Z,15.37
2018-10-03T21:22:00.197Z,16.07
2018-10-03T21:24:29.056Z,16.57
2018-10-03T21:26:57.940Z,20.80
2018-10-03T21:29:26.740Z,18.47
2018-10-03T21:31:55.709Z,18.10
2018-10-03T21:34:24.521Z,17.63
2018-10-03T21:36:53.275Z,18.77
2018-10-03T21:39:22.029Z,14.83
2018-10-03T21:41:50.894Z,18.37
2018-10-03T21:44:19.709Z,20.60
2018-10-03T21:46:48.449Z,15.23
2018-10-03T21:49:17.244Z,16.93
2018-10-03T21:51:46.276Z,12.50
2018-10-03T21:54:15.036Z,16.53
2018-10-03T21:56:43.993Z,17.70
2018-10-03T21:59:12.806Z,15.93
2018-10-03T22:01:41.775Z,18.00
2018-10-03T22:04:10.583Z,23.80
2018-10-03T22:06:39.359Z,14.63
2018-10-03T22:09:09.438Z,19.70
2018-10-03T22:11:38.230Z,18.70
2018-10-03T22:14:07.110Z,18.40
2018-10-03T22:16:36.680Z,16.90
2018-10-03T22:19:05.555Z,14.83
2018-10-03T22:21:34.327Z,18.63
2018-10-03T22:24:03.051Z,22.70
2018-10-03T22:26:32.180Z,19.93
2018-10-03T22:29:01.623Z,16.50
2018-10-03T22:31:30.413Z,18.57
2018-10-03T22:34:00.215Z,18.80
2018-10-03T22:36:28.969Z,17.00
2018-10-03T22:38:57.752Z,18.63
2018-10-03T22:41:27.338Z,19.17
2018-10-03T22:43:56.170Z,18.67
2018-10-03T22:46:25.532Z,21.90
2018-10-03T22:48:54.386Z,16.40
2018-10-03T22:51:23.180Z,18.83
2018-10-03T22:53:51.921Z,18.90
2018-10-03T22:56:20.701Z,17.33
2018-10-03T22:58:49.741Z,18.03
2018-10-03T23:01:18.532Z,17.00
2018-10-03T23:03:47.273Z,17.43
2018-10-03T23:06:16.238Z,17.03
2018-10-03T23:08:44.929Z,16.80
2018-10-03T23:11:13.795Z,17.90
2018-10-03T23:13:42.497Z,17.63
2018-10-03T23:16:11.286Z,14.30
2018-10-03T23:18:40.109Z,17.17
2018-10-03T23:21:08.921Z,19.90
2018-10-03T23:23:37.672Z,17.60
2018-10-03T23:26:06.598Z,18.13
2018-10-03T23:28:35.308Z,17.40
2018-10-03T23:31:04.056Z,16.60
2018-10-03T23:33:32.932Z,18.00
2018-10-03T23:36:01.705Z,18.60
2018-10-03T23:38:30.464Z,16.70
2018-10-03T23:40:59.782Z,16.23
2018-10-03T23:43:28.686Z,17.00
2018-10-03T23:45:57.472Z,17.43
2018-10-03T23:48:26.295Z,14.00
2018-10-03T23:50:55.184Z,13.07
2018-10-03T23:53:23.969Z,14.10
2018-10-03T23:55:53.168Z,13.23
2018-10-03T23:58:21.915Z,16.00
